createdAt,value
2019-05-30T00:02:14.647Z,7.00
2019-05-30T00:04:46.268Z,6.73
2019-05-30T00:07:16.425Z,6.93
2019-05-30T00:09:46.539Z,7.10
2019-05-30T00:12:16.786Z,6.77
2019-05-30T00:14:46.843Z,7.07
2019-05-30T00:17:16.962Z,7.10
2019-05-30T00:19:47.014Z,7.30
2019-05-30T00:22:17.159Z,7.63
2019-05-30T00:24:47.303Z,7.07
2019-05-30T00:27:17.389Z,7.77
2019-05-30T00:29:47.529Z,7.00
2019-05-30T00:32:19.003Z,7.70
2019-05-30T00:34:49.121Z,6.90
2019-05-30T00:37:19.148Z,6.90
2019-05-30T00:39:49.215Z,7.00
2019-05-30T00:42:19.326Z,7.13
2019-05-30T00:44:49.451Z,8.00
2019-05-30T00:47:19.649Z,7.67
2019-05-30T00:49:49.697Z,6.67
2019-05-30T00:52:19.833Z,7.87
2019-05-30T00:54:49.870Z,7.80
2019-05-30T00:57:19.921Z,7.70
2019-05-30T00:59:50.045Z,7.30
2019-05-30T01:02:20.173Z,6.67
2019-05-30T01:04:50.323Z,7.33
2019-05-30T01:07:20.409Z,7.57
2019-05-30T01:09:50.462Z,6.97
2019-05-30T01:12:20.579Z,7.87
2019-05-30T01:14:50.687Z,7.83
2019-05-30T01:17:20.805Z,8.07
2019-05-30T01:19:50.884Z,7.90
2019-05-30T01:22:21.022Z,8.70
2019-05-30T01:24:51.219Z,8.03
2019-05-30T01:27:21.491Z,7.87
2019-05-30T01:29:51.778Z,8.00
2019-05-30T01:32:28.859Z,7.83
2019-05-30T01:34:59.933Z,7.67
2019-05-30T01:37:30.071Z,8.03
2019-05-30T01:40:00.175Z,8.90
2019-05-30T01:42:30.271Z,8.00
2019-05-30T01:45:00.407Z,7.87
2019-05-30T01:47:30.602Z,8.27
2019-05-30T01:50:00.664Z,7.90
2019-05-30T01:52:30.850Z,8.43
2019-05-30T01:55:00.935Z,8.33
2019-05-30T01:57:31.107Z,8.37
2019-05-30T02:00:02.517Z,8.27
2019-05-30T02:02:33.179Z,8.03
2019-05-30T02:05:03.253Z,8.30
2019-05-30T02:07:33.429Z,8.00
2019-05-30T02:10:03.707Z,8.50
2019-05-30T02:12:33.885Z,8.60
2019-05-30T02:15:04.021Z,8.53
2019-05-30T02:17:34.075Z,8.10
2019-05-30T02:20:05.714Z,8.70
2019-05-30T02:22:35.976Z,8.33
2019-05-30T02:25:06.212Z,9.35
2019-05-30T02:27:36.415Z,8.80
2019-05-30T02:30:09.411Z,8.93
2019-05-30T02:32:39.055Z,8.70
2019-05-30T02:35:12.127Z,8.48
2019-05-30T02:37:41.300Z,8.70
2019-05-30T02:40:14.752Z,8.47
2019-05-30T02:42:46.533Z,9.87
2019-05-30T02:45:16.765Z,8.30
2019-05-30T02:47:46.832Z,8.87
2019-05-30T02:50:17.090Z,9.53
2019-05-30T02:52:47.162Z,9.10
2019-05-30T02:55:17.384Z,9.40
2019-05-30T02:57:47.590Z,8.87
2019-05-30T03:00:18.411Z,8.43
2019-05-30T03:02:48.620Z,9.20
2019-05-30T03:05:18.666Z,9.83
2019-05-30T03:07:48.821Z,8.80
2019-05-30T03:10:19.045Z,9.33
2019-05-30T03:12:49.123Z,9.90
2019-05-30T03:15:22.106Z,9.30
2019-05-30T03:17:52.161Z,9.50
2019-05-30T03:20:23.607Z,9.20
2019-05-30T03:22:54.207Z,9.83
2019-05-30T03:25:24.403Z,9.50
2019-05-30T03:27:54.641Z,9.07
2019-05-30T03:30:27.883Z,8.90
2019-05-30T03:33:06.744Z,9.17
2019-05-30T03:35:32.789Z,9.10
2019-05-30T03:38:00.167Z,9.25
2019-05-30T03:40:31.945Z,8.38
2019-05-30T03:43:05.942Z,8.40
2019-05-30T03:45:36.819Z,7.97
2019-05-30T03:48:09.143Z,8.97
2019-05-30T03:50:40.646Z,8.63
2019-05-30T03:53:11.990Z,8.13
2019-05-30T03:55:44.441Z,8.40
2019-05-30T03:58:23.019Z,9.27
2019-05-30T04:00:58.851Z,8.70
2019-05-30T04:03:40.353Z,8.10
2019-05-30T04:06:34.228Z,8.73
2019-05-30T04:09:09.632Z,8.40
2019-05-30T04:11:43.429Z,9.43
2019-05-30T04:14:16.384Z,9.28
2019-05-30T04:16:46.714Z,8.83
2019-05-30T04:19:17.867Z,9.40
2019-05-30T04:21:48.868Z,8.93
2019-05-30T04:24:19.745Z,9.80
2019-05-30T04:26:49.890Z,9.27
2019-05-30T04:29:19.956Z,9.00
2019-05-30T04:31:50.031Z,9.93
2019-05-30T04:34:20.152Z,10.60
2019-05-30T04:36:53.381Z,9.80
2019-05-30T04:39:22.042Z,9.80
2019-05-30T04:41:52.241Z,10.30
2019-05-30T04:44:22.258Z,9.53
2019-05-30T04:46:52.605Z,10.60
2019-05-30T04:49:22.675Z,10.30
2019-05-30T04:51:52.798Z,10.27
2019-05-30T04:54:22.857Z,10.20
2019-05-30T04:56:52.929Z,10.13
2019-05-30T04:59:23.057Z,10.67
2019-05-30T05:01:53.203Z,10.47
2019-05-30T05:04:23.226Z,9.83
2019-05-30T05:06:53.355Z,10.30
2019-05-30T05:09:23.567Z,11.30
2019-05-30T05:11:53.669Z,11.03
2019-05-30T05:14:23.866Z,10.47
2019-05-30T05:16:54.969Z,10.50
2019-05-30T05:19:26.446Z,9.87
2019-05-30T05:21:56.806Z,11.50
2019-05-30T05:24:26.944Z,10.73
2019-05-30T05:26:57.044Z,10.77
2019-05-30T05:29:27.268Z,10.63
2019-05-30T05:31:57.331Z,10.97
2019-05-30T05:34:27.377Z,10.10
2019-05-30T05:36:57.625Z,10.97
2019-05-30T05:39:28.390Z,10.47
2019-05-30T05:41:58.689Z,10.50
2019-05-30T05:44:28.784Z,11.70
2019-05-30T05:46:58.964Z,12.00
2019-05-30T05:49:29.112Z,11.75
2019-05-30T05:51:59.181Z,11.30
2019-05-30T05:54:29.322Z,12.03
2019-05-30T05:56:59.372Z,11.53
2019-05-30T05:59:29.526Z,11.30
2019-05-30T06:01:59.630Z,12.27
2019-05-30T06:04:29.697Z,12.13
2019-05-30T06:06:59.766Z,12.70
2019-05-30T06:09:29.818Z,11.33
2019-05-30T06:11:59.904Z,11.57
2019-05-30T06:14:29.932Z,12.00
2019-05-30T06:16:59.974Z,11.68
2019-05-30T06:19:45.539Z,11.63
2019-05-30T06:22:01.851Z,11.60
2019-05-30T06:24:32.994Z,11.40
2019-05-30T06:27:03.248Z,10.40
2019-05-30T06:29:33.324Z,11.00
2019-05-30T06:32:03.481Z,10.70
2019-05-30T06:34:39.344Z,11.00
2019-05-30T06:37:06.140Z,11.57
2019-05-30T06:39:36.305Z,11.00
2019-05-30T06:42:06.440Z,11.80
2019-05-30T06:44:36.587Z,10.77
2019-05-30T06:47:06.692Z,11.63
2019-05-30T06:49:36.901Z,11.60
2019-05-30T06:52:07.010Z,10.60
2019-05-30T06:54:37.179Z,10.97
2019-05-30T06:57:07.354Z,10.60
2019-05-30T06:59:37.673Z,11.03
2019-05-30T07:02:07.811Z,9.93
2019-05-30T07:04:50.717Z,10.50
2019-05-30T07:07:09.889Z,10.13
2019-05-30T07:09:43.789Z,9.93
2019-05-30T07:12:13.885Z,8.43
2019-05-30T07:14:44.019Z,9.10
2019-05-30T07:17:14.178Z,7.43
2019-05-30T07:19:44.395Z,8.47
2019-05-30T07:22:14.501Z,7.47
2019-05-30T07:24:44.601Z,8.43
2019-05-30T07:27:14.838Z,8.00
2019-05-30T07:29:45.043Z,8.37
2019-05-30T07:32:15.122Z,8.40
2019-05-30T07:34:46.112Z,7.90
2019-05-30T07:37:16.391Z,7.97
2019-05-30T07:39:46.543Z,8.03
2019-05-30T07:42:16.556Z,7.40
2019-05-30T07:44:46.688Z,7.13
2019-05-30T07:47:16.919Z,6.93
2019-05-30T07:49:47.044Z,8.00
2019-05-30T07:52:17.210Z,7.20
2019-05-30T07:54:47.282Z,7.40
2019-05-30T07:57:17.468Z,7.50
2019-05-30T07:59:47.558Z,6.70
2019-05-30T08:02:17.763Z,6.83
2019-05-30T08:04:47.861Z,9.00
2019-05-30T08:07:18.016Z,6.97
2019-05-30T08:09:48.448Z,6.80
2019-05-30T08:12:18.563Z,6.90
2019-05-30T08:14:48.750Z,7.57
2019-05-30T08:17:18.854Z,7.10
2019-05-30T08:19:49.022Z,6.23
2019-05-30T08:22:19.285Z,7.70
2019-05-30T08:24:49.373Z,6.60
2019-05-30T08:27:19.477Z,6.57
2019-05-30T08:29:49.613Z,6.53
2019-05-30T08:32:19.762Z,6.20
2019-05-30T08:34:49.873Z,6.60
2019-05-30T08:37:19.986Z,6.77
2019-05-30T08:39:51.259Z,6.47
2019-05-30T08:42:21.358Z,6.60
2019-05-30T08:44:51.405Z,6.50
2019-05-30T08:47:21.629Z,6.50
2019-05-30T08:49:51.776Z,6.97
2019-05-30T08:52:21.907Z,6.92
2019-05-30T08:54:51.982Z,6.90
2019-05-30T08:57:22.546Z,7.10
2019-05-30T08:59:52.714Z,7.40
2019-05-30T09:02:22.859Z,6.73
2019-05-30T09:04:53.069Z,6.90
2019-05-30T09:07:23.125Z,6.43
2019-05-30T09:09:53.368Z,6.73
2019-05-30T09:12:23.508Z,6.20
2019-05-30T09:14:59.701Z,5.90
2019-05-30T09:17:29.863Z,6.00
2019-05-30T09:20:00.002Z,6.10
2019-05-30T09:22:30.159Z,6.90
2019-05-30T09:25:00.464Z,6.70
2019-05-30T09:27:30.523Z,6.63
2019-05-30T09:30:00.789Z,6.27
2019-05-30T09:32:30.827Z,6.27
2019-05-30T09:35:00.935Z,6.07
2019-05-30T09:37:31.153Z,6.27
2019-05-30T09:40:01.345Z,6.73
2019-05-30T09:42:31.442Z,6.53
2019-05-30T09:45:01.751Z,6.47
2019-05-30T09:47:31.915Z,15.85
2019-05-30T09:50:03.929Z,6.50
2019-05-30T09:52:34.054Z,6.97
2019-05-30T09:55:04.265Z,6.63
2019-05-30T09:57:34.783Z,6.80
2019-05-30T10:00:06.685Z,6.60
2019-05-30T10:02:36.979Z,6.50
2019-05-30T10:05:08.296Z,6.78
2019-05-30T10:07:38.521Z,6.93
2019-05-30T10:10:08.993Z,6.70
2019-05-30T10:12:39.011Z,6.05
2019-05-30T10:15:09.179Z,6.83
2019-05-30T10:17:39.284Z,7.20
2019-05-30T10:20:09.849Z,7.10
2019-05-30T10:22:39.923Z,7.50
2019-05-30T10:25:10.038Z,7.37
2019-05-30T10:27:40.127Z,7.43
2019-05-30T10:30:10.820Z,7.28
2019-05-30T10:32:40.922Z,7.40
2019-05-30T10:35:11.203Z,7.50
2019-05-30T10:37:41.260Z,7.42
2019-05-30T10:40:12.838Z,16.77
2019-05-30T10:42:43.001Z,8.55
2019-05-30T10:45:13.251Z,7.63
2019-05-30T10:47:43.294Z,7.72
2019-05-30T10:50:13.337Z,8.37
2019-05-30T10:52:43.433Z,7.65
2019-05-30T10:55:17.895Z,7.70
2019-05-30T10:57:50.042Z,8.17
2019-05-30T11:00:22.576Z,10.45
2019-05-30T11:02:52.924Z,7.90
2019-05-30T11:05:23.047Z,8.40
2019-05-30T11:08:06.071Z,8.10
2019-05-30T11:10:38.940Z,8.63
2019-05-30T11:13:13.202Z,7.87
2019-05-30T11:15:43.574Z,7.97
2019-05-30T11:18:13.835Z,8.38
2019-05-30T11:20:44.114Z,7.63
2019-05-30T11:23:14.226Z,8.00
2019-05-30T11:25:44.306Z,8.30
2019-05-30T11:28:14.595Z,8.20
2019-05-30T11:30:44.622Z,7.77
2019-05-30T11:33:14.701Z,8.37
2019-05-30T11:35:44.862Z,8.10
2019-05-30T11:38:14.951Z,7.75
2019-05-30T11:40:45.030Z,8.10
2019-05-30T11:43:15.075Z,9.40
2019-05-30T11:45:45.167Z,9.93
2019-05-30T11:48:15.299Z,9.25
2019-05-30T11:50:45.413Z,8.80
2019-05-30T11:53:15.455Z,9.60
2019-05-30T11:55:45.488Z,10.87
2019-05-30T11:58:19.373Z,8.97
2019-05-30T12:00:47.386Z,10.20
2019-05-30T12:03:17.469Z,10.28
2019-05-30T12:05:47.494Z,11.93
2019-05-30T12:08:17.631Z,12.37
2019-05-30T12:10:47.757Z,11.03
2019-05-30T12:13:17.839Z,12.75
2019-05-30T12:15:47.932Z,12.77
2019-05-30T12:18:17.963Z,12.88
2019-05-30T12:20:47.978Z,12.30
2019-05-30T12:23:18.142Z,13.50
2019-05-30T12:25:48.170Z,14.27
2019-05-30T12:28:18.356Z,14.98
2019-05-30T12:30:56.841Z,14.70
2019-05-30T12:33:20.253Z,15.80
2019-05-30T12:35:50.771Z,13.60
2019-05-30T12:38:20.975Z,15.03
2019-05-30T12:40:51.027Z,14.27
2019-05-30T12:43:21.140Z,14.27
2019-05-30T12:45:51.290Z,16.67
2019-05-30T12:48:21.522Z,15.00
2019-05-30T12:50:51.559Z,19.70
2019-05-30T12:53:21.733Z,20.20
2019-05-30T12:55:52.036Z,20.53
2019-05-30T12:58:22.450Z,18.90
2019-05-30T13:00:52.510Z,23.93
2019-05-30T13:03:22.666Z,23.30
2019-05-30T13:05:52.751Z,23.43
2019-05-30T13:08:22.841Z,24.70
2019-05-30T13:10:52.946Z,24.53
2019-05-30T13:13:23.380Z,24.07
2019-05-30T13:15:54.585Z,22.27
2019-05-30T13:18:24.670Z,19.20
2019-05-30T13:20:55.884Z,23.40
2019-05-30T13:23:26.130Z,20.07
2019-05-30T13:25:57.234Z,22.60
2019-05-30T13:28:27.697Z,23.33
2019-05-30T13:30:58.161Z,22.07
2019-05-30T13:33:28.267Z,22.00
2019-05-30T13:35:58.915Z,19.67
2019-05-30T13:38:29.164Z,19.27
2019-05-30T13:40:59.385Z,25.60
2019-05-30T13:43:29.630Z,23.20
2019-05-30T13:46:00.235Z,23.37
2019-05-30T13:48:31.802Z,25.60
2019-05-30T13:51:02.774Z,26.87
2019-05-30T13:53:32.920Z,25.17
2019-05-30T13:56:03.453Z,23.50
2019-05-30T13:58:33.541Z,25.87
2019-05-30T14:01:09.366Z,22.43
2019-05-30T14:03:35.542Z,24.27
2019-05-30T14:06:06.195Z,24.20
2019-05-30T14:08:41.439Z,22.17
2019-05-30T14:11:08.684Z,23.90
2019-05-30T14:13:38.817Z,26.05
2019-05-30T14:16:09.100Z,27.67
2019-05-30T14:18:39.175Z,28.20
2019-05-30T14:21:09.423Z,28.33
2019-05-30T14:23:39.550Z,29.77
2019-05-30T14:26:09.832Z,32.20
2019-05-30T14:28:39.971Z,28.03
2019-05-30T14:31:11.970Z,29.98
2019-05-30T14:33:42.076Z,30.00
2019-05-30T14:36:13.375Z,30.20
2019-05-30T14:38:57.656Z,30.00
2019-05-30T14:41:16.685Z,33.87
2019-05-30T14:43:47.010Z,31.97
2019-05-30T14:46:17.371Z,34.70
2019-05-30T14:48:47.610Z,33.47
2019-05-30T14:51:17.700Z,31.90
2019-05-30T14:53:47.840Z,27.90
2019-05-30T14:56:18.021Z,27.53
2019-05-30T14:58:48.133Z,26.80
2019-05-30T15:01:18.285Z,23.57
2019-05-30T15:03:48.413Z,20.27
2019-05-30T15:06:18.608Z,26.10
2019-05-30T15:08:48.846Z,27.13
2019-05-30T15:11:18.959Z,30.00
2019-05-30T15:13:49.128Z,33.00
2019-05-30T15:16:19.808Z,39.83
2019-05-30T15:18:50.085Z,41.58
2019-05-30T15:21:20.251Z,43.50
2019-05-30T15:23:50.486Z,43.40
2019-05-30T15:26:20.607Z,47.77
2019-05-30T15:28:50.842Z,52.83
2019-05-30T15:31:20.946Z,53.60
2019-05-30T15:33:51.028Z,59.03
2019-05-30T15:36:21.139Z,57.43
2019-05-30T15:38:51.250Z,59.00
2019-05-30T15:41:21.379Z,62.90
2019-05-30T15:43:51.538Z,75.73
2019-05-30T15:46:21.783Z,80.33
2019-05-30T15:48:51.957Z,69.93
2019-05-30T15:51:22.040Z,68.05
2019-05-30T15:53:52.038Z,67.70
2019-05-30T15:56:22.124Z,66.47
2019-05-30T15:58:52.304Z,71.27
2019-05-30T16:01:24.910Z,77.60
2019-05-30T16:03:55.024Z,67.07
2019-05-30T16:06:25.064Z,73.37
2019-05-30T16:08:55.147Z,73.42
2019-05-30T16:11:25.274Z,74.80
2019-05-30T16:13:55.373Z,66.90
2019-05-30T16:16:38.778Z,70.03
2019-05-30T16:18:57.317Z,72.83
2019-05-30T16:21:27.407Z,66.97
2019-05-30T16:23:57.543Z,60.17
2019-05-30T16:26:27.566Z,72.50
2019-05-30T16:28:57.719Z,61.70
2019-05-30T16:31:27.781Z,54.93
2019-05-30T16:33:57.977Z,53.73
2019-05-30T16:36:28.026Z,55.10
2019-05-30T16:38:58.125Z,46.47
2019-05-30T16:41:28.162Z,48.13
2019-05-30T16:43:58.318Z,43.87
2019-05-30T16:46:28.402Z,40.77
2019-05-30T16:48:58.550Z,33.83
2019-05-30T16:51:28.607Z,32.70
2019-05-30T16:53:59.376Z,30.00
2019-05-30T16:56:29.429Z,28.07
2019-05-30T16:58:59.957Z,27.00
2019-05-30T17:01:30.039Z,23.80
2019-05-30T17:04:00.430Z,22.97
2019-05-30T17:06:30.680Z,21.33
2019-05-30T17:09:00.903Z,18.27
2019-05-30T17:11:30.928Z,18.77
2019-05-30T17:14:01.040Z,17.43
2019-05-30T17:16:31.081Z,17.23
2019-05-30T17:19:01.243Z,15.60
2019-05-30T17:21:31.357Z,15.97
2019-05-30T17:24:01.455Z,13.97
2019-05-30T17:26:31.544Z,12.90
2019-05-30T17:29:01.767Z,13.17
2019-05-30T17:31:31.818Z,11.43
2019-05-30T17:34:02.025Z,11.47
2019-05-30T17:36:32.176Z,12.17
2019-05-30T17:39:02.544Z,11.47
2019-05-30T17:41:32.790Z,9.60
2019-05-30T17:44:02.917Z,9.00
2019-05-30T17:46:33.281Z,9.30
2019-05-30T17:49:03.508Z,8.73
2019-05-30T17:51:33.734Z,8.70
2019-05-30T17:54:04.070Z,8.17
2019-05-30T17:56:37.206Z,8.30
2019-05-30T17:59:07.422Z,9.30
2019-05-30T18:01:37.819Z,8.13
2019-05-30T18:04:08.928Z,7.97
2019-05-30T18:06:38.949Z,8.10
2019-05-30T18:09:11.368Z,8.47
2019-05-30T18:11:41.433Z,7.50
2019-05-30T18:14:11.814Z,7.30
2019-05-30T18:16:41.823Z,7.60
2019-05-30T18:19:11.910Z,7.90
2019-05-30T18:21:42.013Z,7.00
2019-05-30T18:24:12.139Z,7.27
2019-05-30T18:26:42.175Z,7.70
2019-05-30T18:29:12.365Z,7.70
2019-05-30T18:31:42.577Z,6.83
2019-05-30T18:34:13.016Z,7.00
2019-05-30T18:36:43.141Z,7.20
2019-05-30T18:39:13.265Z,7.10
2019-05-30T18:41:43.336Z,6.87
2019-05-30T18:44:13.396Z,6.62
2019-05-30T18:46:43.646Z,6.90
2019-05-30T18:49:14.113Z,6.42
2019-05-30T18:51:44.328Z,6.83
2019-05-30T18:54:14.369Z,6.57
2019-05-30T18:56:44.599Z,6.53
2019-05-30T18:59:15.428Z,6.43
2019-05-30T19:01:45.603Z,6.00
2019-05-30T19:04:15.625Z,6.47
2019-05-30T19:06:45.814Z,5.97
2019-05-30T19:09:19.221Z,5.90
2019-05-30T19:11:49.414Z,6.12
2019-05-30T19:14:19.597Z,6.05
2019-05-30T19:16:49.737Z,6.20
2019-05-30T19:19:19.926Z,5.90
2019-05-30T19:21:50.025Z,6.63
2019-05-30T19:24:20.312Z,6.37
2019-05-30T19:26:50.445Z,6.37
2019-05-30T19:29:20.615Z,6.23
2019-05-30T19:31:50.929Z,5.70
2019-05-30T19:34:21.124Z,5.57
2019-05-30T19:36:51.255Z,5.60
2019-05-30T19:39:21.379Z,5.35
2019-05-30T19:41:57.157Z,4.80
2019-05-30T19:44:25.668Z,5.10
2019-05-30T19:46:55.824Z,5.23
2019-05-30T19:49:26.015Z,5.47
2019-05-30T19:51:56.149Z,5.10
2019-05-30T19:54:26.250Z,5.33
2019-05-30T19:56:56.449Z,5.77
2019-05-30T19:59:26.670Z,5.78
2019-05-30T20:01:56.800Z,5.33
2019-05-30T20:04:26.885Z,5.50
2019-05-30T20:06:57.049Z,6.07
2019-05-30T20:09:27.124Z,5.70
2019-05-30T20:12:03.841Z,6.03
2019-05-30T20:14:32.933Z,6.03
2019-05-30T20:17:03.394Z,6.27
2019-05-30T20:19:33.523Z,6.60
2019-05-30T20:22:03.582Z,7.17
2019-05-30T20:24:34.080Z,5.80
2019-05-30T20:27:04.132Z,6.20
2019-05-30T20:29:34.998Z,5.63
2019-05-30T20:32:06.987Z,5.63
2019-05-30T20:34:38.744Z,5.63
2019-05-30T20:37:09.831Z,6.20
2019-05-30T20:39:40.810Z,5.97
2019-05-30T20:42:19.266Z,5.80
2019-05-30T20:44:42.974Z,6.10
2019-05-30T20:47:13.487Z,5.80
2019-05-30T20:49:43.526Z,6.30
2019-05-30T20:52:13.668Z,6.80
2019-05-30T20:54:43.935Z,6.50
2019-05-30T20:57:14.283Z,6.30
2019-05-30T20:59:44.388Z,6.47
2019-05-30T21:02:14.432Z,6.00
2019-05-30T21:04:44.693Z,6.30
2019-05-30T21:07:14.869Z,6.53
2019-05-30T21:09:46.200Z,6.90
2019-05-30T21:12:16.665Z,6.60
2019-05-30T21:14:48.582Z,6.20
2019-05-30T21:17:18.672Z,6.47
2019-05-30T21:19:48.795Z,6.30
2019-05-30T21:22:18.901Z,6.22
2019-05-30T21:24:49.029Z,6.93
2019-05-30T21:27:19.133Z,6.70
2019-05-30T21:29:49.210Z,6.20
2019-05-30T21:32:19.254Z,6.80
2019-05-30T21:34:49.524Z,6.95
2019-05-30T21:37:19.805Z,6.63
2019-05-30T21:39:50.750Z,6.47
2019-05-30T21:42:21.039Z,6.50
2019-05-30T21:44:52.814Z,7.22
2019-05-30T21:47:23.145Z,6.50
2019-05-30T21:49:53.365Z,6.43
2019-05-30T21:52:23.545Z,6.77
2019-05-30T21:54:53.776Z,6.60
2019-05-30T21:57:23.928Z,6.23
2019-05-30T21:59:54.062Z,6.40
2019-05-30T22:02:24.264Z,6.90
2019-05-30T22:04:54.399Z,6.60
2019-05-30T22:07:24.537Z,6.22
2019-05-30T22:09:54.761Z,7.10
2019-05-30T22:12:24.845Z,6.43
2019-05-30T22:14:54.906Z,6.67
2019-05-30T22:17:24.976Z,6.10
2019-05-30T22:19:55.173Z,6.75
2019-05-30T22:22:25.243Z,6.57
2019-05-30T22:24:55.437Z,6.33
2019-05-30T22:27:25.669Z,6.60
2019-05-30T22:29:55.801Z,6.60
2019-05-30T22:32:25.858Z,6.73
2019-05-30T22:34:55.997Z,6.87
2019-05-30T22:37:26.146Z,6.33
2019-05-30T22:39:56.267Z,6.80
2019-05-30T22:42:26.369Z,6.80
2019-05-30T22:44:56.611Z,6.83
2019-05-30T22:47:26.705Z,7.27
2019-05-30T22:49:57.032Z,6.45
2019-05-30T22:52:27.412Z,6.53
2019-05-30T22:54:57.488Z,6.65
2019-05-30T22:57:27.577Z,6.50
2019-05-30T22:59:57.748Z,6.85
2019-05-30T23:02:27.916Z,6.70
2019-05-30T23:04:58.895Z,6.30
2019-05-30T23:07:29.042Z,6.63
2019-05-30T23:09:59.251Z,7.10
2019-05-30T23:12:29.297Z,6.50
2019-05-30T23:14:59.395Z,6.87
2019-05-30T23:17:29.488Z,6.80
2019-05-30T23:19:59.592Z,7.17
2019-05-30T23:22:29.637Z,6.57
2019-05-30T23:24:59.835Z,6.80
2019-05-30T23:27:29.964Z,6.97
2019-05-30T23:30:00.138Z,7.77
2019-05-30T23:32:30.330Z,7.40
2019-05-30T23:35:00.431Z,7.47
2019-05-30T23:37:30.577Z,6.90
2019-05-30T23:40:00.803Z,6.93
2019-05-30T23:42:30.938Z,7.10
2019-05-30T23:45:01.066Z,7.40
2019-05-30T23:47:31.289Z,6.80
2019-05-30T23:50:01.588Z,7.47
2019-05-30T23:52:31.717Z,7.57
2019-05-30T23:55:02.476Z,7.50
2019-05-30T23:57:32.692Z,7.30
